Time,TemperatureF,DewpointF,PressureIn,WindDirection,WindDirectionDegrees,WindSpeedMPH,WindSpeedGustMPH,Humidity,HourlyPrecipIn,Conditions,Clouds,dailyrainin,SoftwareType,DateUTC
2013-03-02 00:00:00,41.3,37.4,30.29,WSW,245,0.0,0.0,86,0.00,,,0.00,Wunderground v.1.15,2013-03-02 08:00:00,
2013-03-02 00:05:00,41.3,37.7,30.29,WSW,245,0.0,2.0,87,0.00,,,0.00,Wunderground v.1.15,2013-03-02 08:05:00,
2013-03-02 00:10:00,41.5,37.9,30.29,WSW,245,1.0,2.0,87,0.00,,,0.00,Wunderground v.1.15,2013-03-02 08:10:00,
2013-03-02 00:15:00,41.3,37.7,30.29,WSW,245,1.0,2.0,87,0.00,,,0.00,Wunderground v.1.15,2013-03-02 08:15:00,
2013-03-02 00:20:00,41.2,37.3,30.29,WSW,245,0.0,0.0,86,0.00,,,0.00,Wunderground v.1.15,2013-03-02 08:20:00,
2013-03-02 00:30:00,41.1,37.5,30.30,WSW,245,0.0,0.0,87,0.00,,,0.00,Wunderground v.1.15,2013-03-02 08:30:00,
2013-03-02 00:35:00,40.9,37.3,30.30,WSW,245,0.0,0.0,87,0.00,,,0.00,Wunderground v.1.15,2013-03-02 08:35:00,
2013-03-02 00:45:00,41.1,37.8,30.29,WSW,245,0.0,0.0,88,0.00,,,0.00,Wunderground v.1.15,2013-03-02 08:45:00,
2013-03-02 00:50:00,40.9,37.6,30.29,WSW,245,0.0,0.0,88,0.00,,,0.00,Wunderground v.1.15,2013-03-02 08:50:00,
2013-03-02 01:00:00,40.6,37.3,30.28,WSW,245,0.0,0.0,88,0.00,,,0.00,Wunderground v.1.15,2013-03-02 09:00:00,
2013-03-02 01:05:00,40.8,37.5,30.28,WSW,245,0.0,0.0,88,0.00,,,0.00,Wunderground v.1.15,2013-03-02 09:05:00,
2013-03-02 01:10:00,40.8,37.5,30.28,WSW,245,0.0,0.0,88,0.00,,,0.00,Wunderground v.1.15,2013-03-02 09:10:00,
2013-03-02 01:20:00,40.6,37.3,30.28,WSW,245,0.0,0.0,88,0.00,,,0.00,Wunderground v.1.15,2013-03-02 09:20:00,
2013-03-02 01:25:00,40.8,37.5,30.28,WSW,245,0.0,0.0,88,0.00,,,0.00,Wunderground v.1.15,2013-03-02 09:25:00,
2013-03-02 01:35:00,40.9,37.6,30.28,WSW,249,1.0,3.0,88,0.00,,,0.00,Wunderground v.1.15,2013-03-02 09:35:00,
2013-03-02 01:40:00,40.9,37.6,30.28,WSW,249,1.0,1.0,88,0.00,,,0.00,Wunderground v.1.15,2013-03-02 09:40:00,
2013-03-02 01:50:00,40.9,37.6,30.28,WSW,249,0.0,0.0,88,0.00,,,0.00,Wunderground v.1.15,2013-03-02 09:50:00,
2013-03-02 01:55:00,40.9,37.9,30.28,WSW,249,0.0,1.0,89,0.00,,,0.00,Wunderground v.1.15,2013-03-02 09:55:00,
2013-03-02 02:00:00,40.9,37.6,30.28,WSW,249,0.0,0.0,88,0.00,,,0.00,Wunderground v.1.15,2013-03-02 10:00:00,
2013-03-02 02:05:00,40.9,37.6,30.28,WSW,249,0.0,0.0,88,0.00,,,0.00,Wunderground v.1.15,2013-03-02 10:05:00,
2013-03-02 02:10:00,40.9,37.6,30.28,WSW,249,0.0,0.0,88,0.00,,,0.00,Wunderground v.1.15,2013-03-02 10:10:00,
2013-03-02 02:20:00,40.9,37.9,30.28,WSW,249,0.0,0.0,89,0.00,,,0.00,Wunderground v.1.15,2013-03-02 10:20:00,
2013-03-02 02:25:00,41.1,38.1,30.28,WSW,249,0.0,0.0,89,0.00,,,0.00,Wunderground v.1.15,2013-03-02 10:25:00,
2013-03-02 02:30:00,41.1,38.1,30.27,WSW,249,0.0,0.0,89,0.00,,,0.00,Wunderground v.1.15,2013-03-02 10:30:00,
2013-03-02 02:35:00,41.2,38.2,30.27,WSW,249,0.0,0.0,89,0.00,,,0.00,Wunderground v.1.15,2013-03-02 10:35:00,
2013-03-02 02:45:00,40.9,37.6,30.26,WSW,249,0.0,0.0,88,0.00,,,0.00,Wunderground v.1.15,2013-03-02 10:45:00,
2013-03-02 02:50:00,40.9,37.6,30.26,WSW,249,0.0,0.0,88,0.00,,,0.00,Wunderground v.1.15,2013-03-02 10:50:00,
2013-03-02 02:55:00,40.9,37.9,30.26,WSW,249,0.0,1.0,89,0.00,,,0.00,Wunderground v.1.15,2013-03-02 10:55:00,
2013-03-02 03:00:00,40.8,37.8,30.26,WSW,249,1.0,2.0,89,0.00,,,0.00,Wunderground v.1.15,2013-03-02 11:00:00,
2013-03-02 03:10:00,40.5,37.5,30.26,WSW,249,0.0,0.0,89,0.00,,,0.00,Wunderground v.1.15,2013-03-02 11:10:00,
2013-03-02 03:15:00,40.3,37.3,30.25,WSW,249,0.0,0.0,89,0.00,,,0.00,Wunderground v.1.15,2013-03-02 11:15:00,
2013-03-02 03:20:00,40.3,37.3,30.25,WSW,249,1.0,1.0,89,0.00,,,0.00,Wunderground v.1.15,2013-03-02 11:20:00,
2013-03-02 03:25:00,40.2,37.2,30.25,WSW,249,0.0,1.0,89,0.00,,,0.00,Wunderground v.1.15,2013-03-02 11:25:00,
2013-03-02 03:30:00,40.2,37.2,30.25,WSW,249,0.0,0.0,89,0.00,,,0.00,Wunderground v.1.15,2013-03-02 11:30:00,
2013-03-02 03:40:00,40.1,37.1,30.25,WSW,249,0.0,0.0,89,0.00,,,0.00,Wunderground v.1.15,2013-03-02 11:40:00,
2013-03-02 03:45:00,40.1,37.1,30.25,WSW,249,0.0,0.0,89,0.00,,,0.00,Wunderground v.1.15,2013-03-02 11:45:00,
2013-03-02 03:50:00,39.9,36.9,30.25,WSW,249,0.0,0.0,89,0.00,,,0.00,Wunderground v.1.15,2013-03-02 11:50:00,
2013-03-02 03:55:00,39.8,36.8,30.25,WSW,249,0.0,1.0,89,0.00,,,0.00,Wunderground v.1.15,2013-03-02 11:55:00,
2013-03-02 04:05:00,39.5,36.5,30.25,WSW,249,1.0,2.0,89,0.00,,,0.00,Wunderground v.1.15,2013-03-02 12:05:00,
2013-03-02 04:10:00,39.6,36.9,30.25,WSW,249,0.0,0.0,90,0.00,,,0.00,Wunderground v.1.15,2013-03-02 12:10:00,
2013-03-02 04:15:00,39.5,36.8,30.24,WSW,249,0.0,1.0,90,0.00,,,0.00,Wunderground v.1.15,2013-03-02 12:15:00,
2013-03-02 04:20:00,39.6,36.9,30.24,WSW,249,0.0,0.0,90,0.00,,,0.00,Wunderground v.1.15,2013-03-02 12:20:00,
2013-03-02 04:25:00,39.6,36.9,30.24,WSW,249,0.0,0.0,90,0.00,,,0.00,Wunderground v.1.15,2013-03-02 12:25:00,
2013-03-02 04:35:00,39.5,36.8,30.24,WSW,249,0.0,0.0,90,0.00,,,0.00,Wunderground v.1.15,2013-03-02 12:35:00,
2013-03-02 04:40:00,39.5,36.8,30.24,WSW,249,0.0,1.0,90,0.00,,,0.00,Wunderground v.1.15,2013-03-02 12:40:00,
2013-03-02 04:45:00,39.5,36.8,30.24,WSW,249,0.0,1.0,90,0.00,,,0.00,Wunderground v.1.15,2013-03-02 12:45:00,
2013-03-02 04:55:00,39.5,36.8,30.24,WSW,249,1.0,1.0,90,0.00,,,0.00,Wunderground v.1.15,2013-03-02 12:55:00,
2013-03-02 05:05:00,39.3,36.6,30.25,WSW,249,0.0,1.0,90,0.00,,,0.00,Wunderground v.1.15,2013-03-02 13:05:00,
2013-03-02 05:10:00,39.3,36.6,30.25,WSW,249,0.0,0.0,90,0.00,,,0.00,Wunderground v.1.15,2013-03-02 13:10:00,
2013-03-02 05:15:00,39.3,36.6,30.25,WSW,249,0.0,0.0,90,0.00,,,0.00,Wunderground v.1.15,2013-03-02 13:15:00,
2013-03-02 05:20:00,39.2,36.5,30.25,WSW,249,0.0,1.0,90,0.00,,,0.00,Wunderground v.1.15,2013-03-02 13:20:00,
2013-03-02 05:30:00,39.3,36.6,30.24,WSW,249,1.0,1.0,90,0.00,,,0.00,Wunderground v.1.15,2013-03-02 13:30:00,
2013-03-02 05:35:00,39.2,36.5,30.24,WSW,249,0.0,1.0,90,0.00,,,0.00,Wunderground v.1.15,2013-03-02 13:35:00,
2013-03-02 05:40:00,39.2,36.8,30.24,WSW,249,0.0,0.0,91,0.00,,,0.00,Wunderground v.1.15,2013-03-02 13:40:00,
2013-03-02 05:45:00,39.1,36.4,30.25,WSW,249,0.0,0.0,90,0.00,,,0.00,Wunderground v.1.15,2013-03-02 13:45:00,
2013-03-02 05:50:00,39.1,36.7,30.25,WSW,249,0.0,0.0,91,0.00,,,0.00,Wunderground v.1.15,2013-03-02 13:50:00,
2013-03-02 05:55:00,39.1,36.7,30.25,WSW,249,0.0,0.0,91,0.00,,,0.00,Wunderground v.1.15,2013-03-02 13:55:00,
2013-03-02 06:05:00,39.2,36.8,30.25,WSW,249,0.0,0.0,91,0.00,,,0.00,Wunderground v.1.15,2013-03-02 14:05:00,
2013-03-02 06:10:00,39.2,36.8,30.25,WSW,249,0.0,0.0,91,0.00,,,0.00,Wunderground v.1.15,2013-03-02 14:10:00,
2013-03-02 06:15:00,39.2,36.8,30.24,WSW,249,0.0,0.0,91,0.00,,,0.00,Wunderground v.1.15,2013-03-02 14:15:00,
2013-03-02 06:20:00,39.2,36.8,30.24,WSW,249,0.0,0.0,91,0.00,,,0.00,Wunderground v.1.15,2013-03-02 14:20:00,
2013-03-02 06:30:00,39.2,36.8,30.24,WSW,249,0.0,0.0,91,0.00,,,0.00,Wunderground v.1.15,2013-03-02 14:30:00,
2013-03-02 06:35:00,39.1,36.7,30.24,WSW,249,0.0,0.0,91,0.00,,,0.00,Wunderground v.1.15,2013-03-02 14:35:00,
2013-03-02 06:40:00,38.9,36.5,30.24,WSW,249,0.0,0.0,91,0.00,,,0.00,Wunderground v.1.15,2013-03-02 14:40:00,
2013-03-02 06:45:00,38.8,36.4,30.24,WSW,249,0.0,0.0,91,0.00,,,0.00,Wunderground v.1.15,2013-03-02 14:45:00,
2013-03-02 06:50:00,38.8,36.4,30.24,WSW,249,0.0,0.0,91,0.00,,,0.00,Wunderground v.1.15,2013-03-02 14:50:00,
2013-03-02 07:00:00,38.8,36.4,30.25,WSW,249,0.0,0.0,91,0.00,,,0.00,Wunderground v.1.15,2013-03-02 15:00:00,
2013-03-02 07:05:00,38.9,36.5,30.25,WSW,249,0.0,0.0,91,0.00,,,0.00,Wunderground v.1.15,2013-03-02 15:05:00,
2013-03-02 07:10:00,38.9,36.5,30.25,WSW,249,0.0,0.0,91,0.00,,,0.00,Wunderground v.1.15,2013-03-02 15:10:00,
2013-03-02 07:15:00,39.2,37.1,30.25,WSW,249,0.0,0.0,92,0.00,,,0.00,Wunderground v.1.15,2013-03-02 15:15:00,
2013-03-02 07:25:00,39.8,37.7,30.25,WNW,296,2.0,3.0,92,0.00,,,0.00,Wunderground v.1.15,2013-03-02 15:25:00,
2013-03-02 07:30:00,40.1,38.0,30.25,WNW,296,1.0,1.0,92,0.00,,,0.00,Wunderground v.1.15,2013-03-02 15:30:00,
2013-03-02 07:35:00,40.2,38.1,30.25,WNW,296,0.0,1.0,92,0.00,,,0.00,Wunderground v.1.15,2013-03-02 15:35:00,
2013-03-02 07:40:00,40.3,38.2,30.25,WNW,296,0.0,0.0,92,0.00,,,0.00,Wunderground v.1.15,2013-03-02 15:40:00,
2013-03-02 07:45:00,40.5,38.4,30.25,WNW,296,0.0,1.0,92,0.00,,,0.00,Wunderground v.1.15,2013-03-02 15:45:00,
2013-03-02 07:50:00,40.9,38.8,30.25,WNW,296,1.0,1.0,92,0.00,,,0.00,Wunderground v.1.15,2013-03-02 15:50:00,
2013-03-02 08:00:00,41.6,39.4,30.25,WNW,296,0.0,0.0,92,0.00,,,0.00,Wunderground v.1.15,2013-03-02 16:00:00,
2013-03-02 08:05:00,41.9,39.7,30.25,WNW,296,0.0,0.0,92,0.00,,,0.00,Wunderground v.1.15,2013-03-02 16:05:00,
2013-03-02 08:15:00,42.8,40.6,30.25,WNW,296,0.0,0.0,92,0.00,,,0.00,Wunderground v.1.15,2013-03-02 16:15:00,
2013-03-02 08:20:00,43.3,41.1,30.25,WNW,296,0.0,0.0,92,0.00,,,0.00,Wunderground v.1.15,2013-03-02 16:20:00,
2013-03-02 08:30:00,44.2,41.7,30.25,WNW,296,0.0,0.0,91,0.00,,,0.00,Wunderground v.1.15,2013-03-02 16:30:00,
2013-03-02 08:35:00,44.3,41.6,30.25,WNW,296,0.0,0.0,90,0.00,,,0.00,Wunderground v.1.15,2013-03-02 16:35:00,
2013-03-02 08:40:00,44.8,42.0,30.25,WNW,296,0.0,0.0,90,0.00,,,0.00,Wunderground v.1.15,2013-03-02 16:40:00,
2013-03-02 08:50:00,45.8,42.7,30.25,WNW,296,0.0,0.0,89,0.00,,,0.00,Wunderground v.1.15,2013-03-02 16:50:00,
2013-03-02 08:55:00,46.5,43.1,30.25,WNW,296,0.0,0.0,88,0.00,,,0.00,Wunderground v.1.15,2013-03-02 16:55:00,
2013-03-02 09:05:00,47.7,43.7,30.24,WNW,296,0.0,0.0,86,0.00,,,0.00,Wunderground v.1.15,2013-03-02 17:05:00,
2013-03-02 09:10:00,48.3,44.0,30.24,WNW,296,0.0,0.0,85,0.00,,,0.00,Wunderground v.1.15,2013-03-02 17:10:00,
2013-03-02 09:20:00,51.0,44.0,30.24,WNW,296,0.0,0.0,77,0.00,,,0.00,Wunderground v.1.15,2013-03-02 17:20:00,
2013-03-02 09:25:00,52.5,44.8,30.24,WNW,296,0.0,0.0,75,0.00,,,0.00,Wunderground v.1.15,2013-03-02 17:25:00,
2013-03-02 09:30:00,53.1,44.3,30.24,ENE,73,0.0,0.0,72,0.00,,,0.00,Wunderground v.1.15,2013-03-02 17:30:00,
2013-03-02 09:40:00,55.3,45.3,30.24,ENE,73,0.0,0.0,69,0.00,,,0.00,Wunderground v.1.15,2013-03-02 17:40:00,
2013-03-02 09:45:00,55.7,45.3,30.24,NNW,338,0.0,0.0,68,0.00,,,0.00,Wunderground v.1.15,2013-03-02 17:45:00,
2013-03-02 09:55:00,56.2,46.2,30.24,NNW,338,0.0,0.0,69,0.00,,,0.00,Wunderground v.1.15,2013-03-02 17:55:00,
2013-03-02 10:00:00,56.5,45.7,30.23,NNW,338,0.0,0.0,67,0.00,,,0.00,Wunderground v.1.15,2013-03-02 18:00:00,
2013-03-02 10:10:00,58.7,46.5,30.23,NNW,338,0.0,0.0,64,0.00,,,0.00,Wunderground v.1.15,2013-03-02 18:10:00,
2013-03-02 10:15:00,58.7,46.1,30.22,East,94,0.0,0.0,63,0.00,,,0.00,Wunderground v.1.15,2013-03-02 18:15:00,
2013-03-02 10:20:00,59.0,46.0,30.22,East,94,0.0,0.0,62,0.00,,,0.00,Wunderground v.1.15,2013-03-02 18:20:00,
2013-03-02 10:30:00,59.8,46.3,30.22,East,94,0.0,0.0,61,0.00,,,0.00,Wunderground v.1.15,2013-03-02 18:30:00,
2013-03-02 10:35:00,60.4,46.4,30.22,East,94,0.0,0.0,60,0.00,,,0.00,Wunderground v.1.15,2013-03-02 18:35:00,
2013-03-02 10:45:00,61.6,47.1,30.22,East,93,0.0,0.0,59,0.00,,,0.00,Wunderground v.1.15,2013-03-02 18:45:00,
2013-03-02 10:50:00,62.0,46.6,30.22,East,93,0.0,1.0,57,0.00,,,0.00,Wunderground v.1.15,2013-03-02 18:50:00,
2013-03-02 10:55:00,62.4,45.5,30.22,East,93,0.0,1.0,54,0.00,,,0.00,Wunderground v.1.15,2013-03-02 18:55:00,
2013-03-02 11:00:00,63.1,44.2,30.21,East,99,0.0,0.0,50,0.00,,,0.00,Wunderground v.1.15,2013-03-02 19:00:00,
2013-03-02 11:10:00,64.2,44.6,30.21,East,99,0.0,0.0,49,0.00,,,0.00,Wunderground v.1.15,2013-03-02 19:10:00,
2013-03-02 11:15:00,65.2,45.5,30.20,East,99,0.0,0.0,49,0.00,,,0.00,Wunderground v.1.15,2013-03-02 19:15:00,
2013-03-02 11:20:00,65.3,45.1,30.20,East,98,0.0,1.0,48,0.00,,,0.00,Wunderground v.1.15,2013-03-02 19:20:00,
2013-03-02 11:30:00,66.4,46.1,30.19,SE,132,1.0,1.0,48,0.00,,,0.00,Wunderground v.1.15,2013-03-02 19:30:00,
2013-03-02 11:35:00,66.6,45.2,30.19,SE,136,2.0,5.0,46,0.00,,,0.00,Wunderground v.1.15,2013-03-02 19:35:00,
2013-03-02 11:40:00,67.3,45.8,30.19,ESE,119,3.0,3.0,46,0.00,,,0.00,Wunderground v.1.15,2013-03-02 19:40:00,
2013-03-02 11:50:00,67.8,44.5,30.18,ESE,116,3.0,3.0,43,0.00,,,0.00,Wunderground v.1.15,2013-03-02 19:50:00,
2013-03-02 11:55:00,67.8,45.1,30.18,South,177,3.0,3.0,44,0.00,,,0.00,Wunderground v.1.15,2013-03-02 19:55:00,
2013-03-02 12:00:00,67.3,45.2,30.17,East,94,3.0,3.0,45,0.00,,,0.00,Wunderground v.1.15,2013-03-02 20:00:00,
2013-03-02 12:10:00,68.6,45.2,30.17,SSE,162,2.0,2.0,43,0.00,,,0.00,Wunderground v.1.15,2013-03-02 20:10:00,
2013-03-02 12:15:00,68.9,45.5,30.17,East,81,1.0,2.0,43,0.00,,,0.00,Wunderground v.1.15,2013-03-02 20:15:00,
2013-03-02 12:20:00,68.9,45.5,30.17,SW,214,1.0,1.0,43,0.00,,,0.00,Wunderground v.1.15,2013-03-02 20:20:00,
2013-03-02 12:30:00,69.3,45.2,30.16,East,97,2.0,8.0,42,0.00,,,0.00,Wunderground v.1.15,2013-03-02 20:30:00,
2013-03-02 12:40:00,67.8,45.1,30.16,East,99,5.0,6.0,44,0.00,,,0.00,Wunderground v.1.15,2013-03-02 20:40:00,
2013-03-02 12:45:00,67.8,45.1,30.14,ESE,105,4.0,6.0,44,0.00,,,0.00,Wunderground v.1.15,2013-03-02 20:45:00,
2013-03-02 12:50:00,68.3,44.9,30.14,SSE,163,3.0,4.0,43,0.00,,,0.00,Wunderground v.1.15,2013-03-02 20:50:00,
2013-03-02 13:00:00,68.8,46.0,30.14,ESE,113,2.0,2.0,44,0.00,,,0.00,Wunderground v.1.15,2013-03-02 21:00:00,
2013-03-02 13:05:00,69.1,45.0,30.14,SSE,167,1.0,2.0,42,0.00,,,0.00,Wunderground v.1.15,2013-03-02 21:05:00,
2013-03-02 13:10:00,69.3,45.8,30.14,East,90,2.0,2.0,43,0.00,,,0.00,Wunderground v.1.15,2013-03-02 21:10:00,
2013-03-02 13:20:00,69.1,45.0,30.14,ENE,70,2.0,5.0,42,0.00,,,0.00,Wunderground v.1.15,2013-03-02 21:20:00,
2013-03-02 13:25:00,68.6,45.8,30.14,East,92,3.0,6.0,44,0.00,,,0.00,Wunderground v.1.15,2013-03-02 21:25:00,
2013-03-02 13:30:00,68.6,45.8,30.13,ESE,105,3.0,4.0,44,0.00,,,0.00,Wunderground v.1.15,2013-03-02 21:30:00,
2013-03-02 13:35:00,68.8,45.4,30.13,East,82,3.0,4.0,43,0.00,,,0.00,Wunderground v.1.15,2013-03-02 21:35:00,
2013-03-02 13:40:00,69.1,46.3,30.13,ENE,63,2.0,2.0,44,0.00,,,0.00,Wunderground v.1.15,2013-03-02 21:40:00,
2013-03-02 13:50:00,69.1,45.0,30.12,East,86,2.0,5.0,42,0.00,,,0.00,Wunderground v.1.15,2013-03-02 21:50:00,
2013-03-02 13:55:00,69.3,45.2,30.12,ENE,78,2.0,5.0,42,0.00,,,0.00,Wunderground v.1.15,2013-03-02 21:55:00,
2013-03-02 14:00:00,69.1,45.0,30.12,ESE,103,3.0,3.0,42,0.00,,,0.00,Wunderground v.1.15,2013-03-02 22:00:00,
2013-03-02 14:10:00,69.6,44.8,30.12,East,92,2.0,2.0,41,0.00,,,0.00,Wunderground v.1.15,2013-03-02 22:10:00,
2013-03-02 14:20:00,69.6,45.5,30.11,East,81,2.0,2.0,42,0.00,,,0.00,Wunderground v.1.15,2013-03-02 22:20:00,
2013-03-02 14:25:00,69.6,46.1,30.11,East,97,2.0,3.0,43,0.00,,,0.00,Wunderground v.1.15,2013-03-02 22:25:00,
2013-03-02 14:30:00,69.8,45.7,30.11,ESE,120,1.0,1.0,42,0.00,,,0.00,Wunderground v.1.15,2013-03-02 22:30:00,
2013-03-02 14:40:00,69.6,46.1,30.11,ESE,118,1.0,1.0,43,0.00,,,0.00,Wunderground v.1.15,2013-03-02 22:40:00,
2013-03-02 14:45:00,69.6,46.1,30.09,East,98,2.0,2.0,43,0.00,,,0.00,Wunderground v.1.15,2013-03-02 22:45:00,
2013-03-02 14:50:00,69.6,46.7,30.09,East,82,2.0,2.0,44,0.00,,,0.00,Wunderground v.1.15,2013-03-02 22:50:00,
2013-03-02 15:00:00,69.6,46.7,30.10,SE,128,1.0,1.0,44,0.00,,,0.00,Wunderground v.1.15,2013-03-02 23:00:00,
2013-03-02 15:05:00,69.6,46.1,30.10,ESE,105,1.0,1.0,43,0.00,,,0.00,Wunderground v.1.15,2013-03-02 23:05:00,
2013-03-02 15:10:00,69.4,45.9,30.10,East,95,1.0,5.0,43,0.00,,,0.00,Wunderground v.1.15,2013-03-02 23:10:00,
2013-03-02 15:20:00,69.4,45.9,30.09,East,84,1.0,1.0,43,0.00,,,0.00,Wunderground v.1.15,2013-03-02 23:20:00,
2013-03-02 15:25:00,69.3,45.8,30.09,ESE,115,1.0,2.0,43,0.00,,,0.00,Wunderground v.1.15,2013-03-02 23:25:00,
2013-03-02 15:35:00,69.1,46.3,30.09,SE,132,1.0,1.0,44,0.00,,,0.00,Wunderground v.1.15,2013-03-02 23:35:00,
2013-03-02 15:40:00,69.1,46.3,30.09,ESE,103,0.0,0.0,44,0.00,,,0.00,Wunderground v.1.15,2013-03-02 23:40:00,
2013-03-02 15:45:00,68.9,45.5,30.09,SE,131,1.0,1.0,43,0.00,,,0.00,Wunderground v.1.15,2013-03-02 23:45:00,
2013-03-02 15:50:00,68.9,45.5,30.09,SE,125,0.0,0.0,43,0.00,,,0.00,Wunderground v.1.15,2013-03-02 23:50:00,
2013-03-02 16:00:00,68.8,45.4,30.08,ESE,103,0.0,1.0,43,0.00,,,0.00,Wunderground v.1.15,2013-03-03 00:00:00,
2013-03-02 16:05:00,68.8,45.4,30.08,SE,127,0.0,4.0,43,0.00,,,0.00,Wunderground v.1.15,2013-03-03 00:05:00,
2013-03-02 16:10:00,68.6,45.8,30.08,SE,146,0.0,0.0,44,0.00,,,0.00,Wunderground v.1.15,2013-03-03 00:10:00,
2013-03-02 16:20:00,68.6,45.8,30.09,SE,138,0.0,0.0,44,0.00,,,0.00,Wunderground v.1.15,2013-03-03 00:20:00,
2013-03-02 16:30:00,68.6,46.4,30.08,SE,124,0.0,0.0,45,0.00,,,0.00,Wunderground v.1.15,2013-03-03 00:30:00,
2013-03-02 16:40:00,68.4,46.8,30.08,SE,124,0.0,0.0,46,0.00,,,0.00,Wunderground v.1.15,2013-03-03 00:40:00,
2013-03-02 16:50:00,68.3,46.7,30.08,SE,124,0.0,0.0,46,0.00,,,0.00,Wunderground v.1.15,2013-03-03 00:50:00,
2013-03-02 16:55:00,68.3,47.3,30.08,SE,124,0.0,0.0,47,0.00,,,0.00,Wunderground v.1.15,2013-03-03 00:55:00,
2013-03-02 17:00:00,67.8,47.4,30.08,SE,124,0.0,0.0,48,0.00,,,0.00,Wunderground v.1.15,2013-03-03 01:00:00,
2013-03-02 17:10:00,67.1,47.8,30.08,SE,124,0.0,0.0,50,0.00,,,0.00,Wunderground v.1.15,2013-03-03 01:10:00,
2013-03-02 17:15:00,66.9,48.2,30.06,SE,124,0.0,0.0,51,0.00,,,0.00,Wunderground v.1.15,2013-03-03 01:15:00,
2013-03-02 17:20:00,66.8,48.1,30.06,SE,124,0.0,0.0,51,0.00,,,0.00,Wunderground v.1.15,2013-03-03 01:20:00,
2013-03-02 17:30:00,65.8,48.2,30.06,SE,124,0.0,0.0,53,0.00,,,0.00,Wunderground v.1.15,2013-03-03 01:30:00,
2013-03-02 17:35:00,65.3,47.7,30.06,SE,124,0.0,0.0,53,0.00,,,0.00,Wunderground v.1.15,2013-03-03 01:35:00,
2013-03-02 17:45:00,64.8,48.7,30.08,SE,124,0.0,0.0,56,0.00,,,0.00,Wunderground v.1.15,2013-03-03 01:45:00,
2013-03-02 17:50:00,64.3,48.3,30.08,SE,124,0.0,0.0,56,0.00,,,0.00,Wunderground v.1.15,2013-03-03 01:50:00,
2013-03-02 17:55:00,64.0,48.0,30.08,SE,124,0.0,0.0,56,0.00,,,0.00,Wunderground v.1.15,2013-03-03 01:55:00,
2013-03-02 18:00:00,63.5,48.0,30.08,SE,124,0.0,0.0,57,0.00,,,0.00,Wunderground v.1.15,2013-03-03 02:00:00,
2013-03-02 18:10:00,62.9,48.3,30.08,SE,124,0.0,0.0,59,0.00,,,0.00,Wunderground v.1.15,2013-03-03 02:10:00,
2013-03-02 18:15:00,62.4,48.8,30.08,SE,124,0.0,0.0,61,0.00,,,0.00,Wunderground v.1.15,2013-03-03 02:15:00,
2013-03-02 18:20:00,62.1,48.5,30.08,SE,126,0.0,0.0,61,0.00,,,0.00,Wunderground v.1.15,2013-03-03 02:20:00,
2013-03-02 18:30:00,61.8,48.6,30.08,SE,126,0.0,0.0,62,0.00,,,0.00,Wunderground v.1.15,2013-03-03 02:30:00,
2013-03-02 18:40:00,61.3,48.6,30.08,SE,126,0.0,0.0,63,0.00,,,0.00,Wunderground v.1.15,2013-03-03 02:40:00,
2013-03-02 18:50:00,60.9,48.6,30.08,SE,126,0.0,0.0,64,0.00,,,0.00,Wunderground v.1.15,2013-03-03 02:50:00,
2013-03-02 18:55:00,60.4,48.6,30.08,SE,126,0.0,0.0,65,0.00,,,0.00,Wunderground v.1.15,2013-03-03 02:55:00,
2013-03-02 19:00:00,60.1,48.7,30.08,SE,126,0.0,0.0,66,0.00,,,0.00,Wunderground v.1.15,2013-03-03 03:00:00,
2013-03-02 19:10:00,59.6,48.6,30.08,SSE,152,0.0,0.0,67,0.00,,,0.00,Wunderground v.1.15,2013-03-03 03:10:00,
2013-03-02 19:15:00,59.3,48.3,30.08,SSE,152,0.0,0.0,67,0.00,,,0.00,Wunderground v.1.15,2013-03-03 03:15:00,
2013-03-02 19:25:00,59.0,48.4,30.08,SE,146,1.0,2.0,68,0.00,,,0.00,Wunderground v.1.15,2013-03-03 03:25:00,
2013-03-02 19:30:00,58.9,48.7,30.08,SE,146,0.0,0.0,69,0.00,,,0.00,Wunderground v.1.15,2013-03-03 03:30:00,
2013-03-02 19:40:00,58.7,48.2,30.08,SE,146,0.0,0.0,68,0.00,,,0.00,Wunderground v.1.15,2013-03-03 03:40:00,
2013-03-02 19:45:00,58.6,48.5,30.08,SE,146,0.0,0.0,69,0.00,,,0.00,Wunderground v.1.15,2013-03-03 03:45:00,
2013-03-02 19:50:00,58.3,48.2,30.08,SE,146,0.0,0.0,69,0.00,,,0.00,Wunderground v.1.15,2013-03-03 03:50:00,
2013-03-02 20:00:00,58.0,48.6,30.08,SE,142,0.0,0.0,71,0.00,,,0.00,Wunderground v.1.15,2013-03-03 04:00:00,
2013-03-02 20:05:00,58.0,48.3,30.08,SE,142,0.0,0.0,70,0.00,,,0.00,Wunderground v.1.15,2013-03-03 04:05:00,
2013-03-02 20:15:00,57.5,48.2,30.08,SE,142,0.0,0.0,71,0.00,,,0.00,Wunderground v.1.15,2013-03-03 04:15:00,
2013-03-02 20:20:00,57.3,48.3,30.08,SSW,192,1.0,1.0,72,0.00,,,0.00,Wunderground v.1.15,2013-03-03 04:20:00,
2013-03-02 20:30:00,57.2,48.3,30.09,SSW,192,0.0,0.0,72,0.00,,,0.00,Wunderground v.1.15,2013-03-03 04:30:00,
2013-03-02 20:35:00,57.0,48.1,30.09,SSW,192,0.0,0.0,72,0.00,,,0.00,Wunderground v.1.15,2013-03-03 04:35:00,
2013-03-02 20:40:00,56.9,48.0,30.09,SSW,192,0.0,0.0,72,0.00,,,0.00,Wunderground v.1.15,2013-03-03 04:40:00,
2013-03-02 20:45:00,56.7,48.1,30.09,SSW,192,0.0,0.0,73,0.00,,,0.00,Wunderground v.1.15,2013-03-03 04:45:00,
2013-03-02 20:55:00,56.6,48.0,30.09,SSW,192,0.0,0.0,73,0.00,,,0.00,Wunderground v.1.15,2013-03-03 04:55:00,
2013-03-02 21:00:00,56.3,47.8,30.09,SSW,192,0.0,0.0,73,0.00,,,0.00,Wunderground v.1.15,2013-03-03 05:00:00,
2013-03-02 21:05:00,56.3,48.1,30.09,SSW,192,0.0,0.0,74,0.00,,,0.00,Wunderground v.1.15,2013-03-03 05:05:00,
2013-03-02 21:10:00,56.2,48.0,30.09,SSW,192,0.0,0.0,74,0.00,,,0.00,Wunderground v.1.15,2013-03-03 05:10:00,
2013-03-02 21:15:00,56.0,47.8,30.10,SSW,192,0.0,0.0,74,0.00,,,0.00,Wunderground v.1.15,2013-03-03 05:15:00,
2013-03-02 21:20:00,56.0,48.2,30.10,SSW,192,0.0,0.0,75,0.00,,,0.00,Wunderground v.1.15,2013-03-03 05:20:00,
2013-03-02 21:25:00,55.9,47.7,30.10,SSW,192,0.0,0.0,74,0.00,,,0.00,Wunderground v.1.15,2013-03-03 05:25:00,
2013-03-02 21:30:00,55.6,47.8,30.10,SSW,192,0.0,0.0,75,0.00,,,0.00,Wunderground v.1.15,2013-03-03 05:30:00,
2013-03-02 21:40:00,55.3,47.5,30.10,SSW,192,0.0,0.0,75,0.00,,,0.00,Wunderground v.1.15,2013-03-03 05:40:00,
2013-03-02 21:45:00,55.1,47.3,30.10,SSW,192,0.0,0.0,75,0.00,,,0.00,Wunderground v.1.15,2013-03-03 05:45:00,
2013-03-02 21:55:00,55.0,47.6,30.10,SSW,192,0.0,0.0,76,0.00,,,0.00,Wunderground v.1.15,2013-03-03 05:55:00,
2013-03-02 22:05:00,54.7,47.3,30.10,SSW,192,0.0,0.0,76,0.00,,,0.00,Wunderground v.1.15,2013-03-03 06:05:00,
2013-03-02 22:10:00,54.7,47.3,30.10,SSW,192,0.0,0.0,76,0.00,,,0.00,Wunderground v.1.15,2013-03-03 06:10:00,
2013-03-02 22:15:00,54.5,47.4,30.09,SSW,192,0.0,0.0,77,0.00,,,0.00,Wunderground v.1.15,2013-03-03 06:15:00,
2013-03-02 22:20:00,54.5,47.4,30.09,SSW,192,0.0,0.0,77,0.00,,,0.00,Wunderground v.1.15,2013-03-03 06:20:00,
2013-03-02 22:30:00,54.4,47.3,30.09,SSW,192,0.0,0.0,77,0.00,,,0.00,Wunderground v.1.15,2013-03-03 06:30:00,
2013-03-02 22:35:00,54.2,47.1,30.09,SSW,192,0.0,0.0,77,0.00,,,0.00,Wunderground v.1.15,2013-03-03 06:35:00,
2013-03-02 22:45:00,53.8,46.8,30.09,SSW,192,0.0,0.0,77,0.00,,,0.00,Wunderground v.1.15,2013-03-03 06:45:00,
2013-03-02 22:50:00,53.6,46.9,30.09,SSW,192,0.0,0.0,78,0.00,,,0.00,Wunderground v.1.15,2013-03-03 06:50:00,
2013-03-02 23:00:00,53.3,46.6,30.09,SSW,192,0.0,0.0,78,0.00,,,0.00,Wunderground v.1.15,2013-03-03 07:00:00,
2013-03-02 23:05:00,53.2,46.5,30.09,SSW,192,0.0,0.0,78,0.00,,,0.00,Wunderground v.1.15,2013-03-03 07:05:00,
2013-03-02 23:10:00,53.1,46.8,30.09,SSW,192,0.0,0.0,79,0.00,,,0.00,Wunderground v.1.15,2013-03-03 07:10:00,
2013-03-02 23:20:00,52.8,46.5,30.09,SSW,192,0.0,0.0,79,0.00,,,0.00,Wunderground v.1.15,2013-03-03 07:20:00,
2013-03-02 23:25:00,52.6,46.3,30.09,SSW,192,0.0,0.0,79,0.00,,,0.00,Wunderground v.1.15,2013-03-03 07:25:00,
2013-03-02 23:35:00,52.5,46.2,30.08,SSW,192,0.0,0.0,79,0.00,,,0.00,Wunderground v.1.15,2013-03-03 07:35:00,
2013-03-02 23:40:00,52.3,46.0,30.08,SSW,192,0.0,0.0,79,0.00,,,0.00,Wunderground v.1.15,2013-03-03 07:40:00,
2013-03-02 23:50:00,52.3,46.3,30.08,WSW,257,0.0,0.0,80,0.00,,,0.00,Wunderground v.1.15,2013-03-03 07:50:00,
2013-03-02 23:55:00,52.5,46.2,30.08,West,267,1.0,1.0,79,0.00,,,0.00,Wunderground v.1.15,2013-03-03 07:55:00,